createdAt,value
2023-01-09T00:00:53.249Z,84.94
2023-01-09T00:03:19.603Z,85.09
2023-01-09T00:05:46.198Z,84.57
2023-01-09T00:08:12.663Z,84.34
2023-01-09T00:10:39.070Z,84.16
2023-01-09T00:13:05.509Z,85.38
2023-01-09T00:15:31.976Z,84.50
2023-01-09T00:17:58.344Z,84.18
2023-01-09T00:20:24.849Z,83.93
2023-01-09T00:22:51.279Z,84.28
2023-01-09T00:25:17.721Z,84.28
2023-01-09T00:27:44.156Z,83.79
2023-01-09T00:30:11.402Z,84.10
2023-01-09T00:32:37.755Z,83.94
2023-01-09T00:35:04.573Z,83.45
2023-01-09T00:37:31.004Z,84.27
2023-01-09T00:39:57.351Z,84.33
2023-01-09T00:42:28.294Z,84.14
2023-01-09T00:44:59.463Z,84.92
2023-01-09T00:47:40.405Z,85.31
2023-01-09T00:50:30.576Z,85.27
2023-01-09T00:53:01.465Z,84.70
2023-01-09T00:55:28.097Z,84.33
2023-01-09T00:57:55.689Z,85.83
2023-01-09T01:00:22.465Z,86.16
2023-01-09T01:02:48.888Z,86.54
2023-01-09T01:05:34.075Z,86.61
2023-01-09T01:08:00.508Z,86.04
2023-01-09T01:10:27.760Z,86.29
2023-01-09T01:12:54.191Z,86.54
2023-01-09T01:15:20.960Z,86.27
2023-01-09T01:17:47.934Z,85.87
2023-01-09T01:20:18.715Z,86.10
2023-01-09T01:22:45.141Z,85.60
2023-01-09T01:25:14.237Z,84.86
2023-01-09T01:27:41.271Z,85.39
2023-01-09T01:30:09.635Z,84.77
2023-01-09T01:32:36.296Z,85.78
2023-01-09T01:35:02.864Z,85.50
2023-01-09T01:37:29.327Z,85.43
2023-01-09T01:39:55.818Z,85.87
2023-01-09T01:42:22.561Z,86.10
2023-01-09T01:45:07.717Z,85.81
2023-01-09T01:47:40.209Z,85.68
2023-01-09T01:50:22.743Z,85.59
2023-01-09T01:52:56.318Z,85.67
2023-01-09T01:55:23.324Z,85.80
2023-01-09T01:57:54.210Z,85.89
2023-01-09T02:00:27.141Z,86.49
2023-01-09T02:02:53.681Z,86.11
2023-01-09T02:05:20.245Z,86.77
2023-01-09T02:07:46.796Z,85.80
2023-01-09T02:10:13.228Z,85.36
2023-01-09T02:12:39.581Z,85.15
2023-01-09T02:15:10.660Z,85.19
2023-01-09T02:17:56.043Z,84.97
2023-01-09T02:20:32.557Z,84.91
2023-01-09T02:23:42.955Z,84.84
2023-01-09T02:26:35.281Z,83.90
2023-01-09T02:29:10.346Z,84.11
2023-01-09T02:31:43.694Z,83.94
2023-01-09T02:34:43.823Z,83.24
2023-01-09T02:37:39.839Z,83.71
2023-01-09T02:40:20.831Z,83.30
2023-01-09T02:42:48.386Z,83.50
2023-01-09T02:45:14.820Z,82.99
2023-01-09T02:47:46.378Z,83.56
2023-01-09T02:50:23.450Z,82.61
2023-01-09T02:53:11.281Z,82.91
2023-01-09T02:55:58.827Z,83.06
2023-01-09T02:59:07.229Z,81.86
2023-01-09T03:02:05.830Z,82.60
2023-01-09T03:04:53.682Z,82.59
2023-01-09T03:07:33.010Z,83.02
2023-01-09T03:10:08.585Z,83.29
2023-01-09T03:12:36.729Z,82.88
2023-01-09T03:15:07.081Z,82.44
2023-01-09T03:17:43.935Z,82.74
2023-01-09T03:20:13.516Z,83.08
2023-01-09T03:22:45.828Z,82.97
2023-01-09T03:25:13.088Z,83.13
2023-01-09T03:27:39.811Z,82.60
2023-01-09T03:30:06.803Z,82.27
2023-01-09T03:32:33.433Z,83.29
2023-01-09T03:35:01.762Z,82.76
2023-01-09T03:37:28.105Z,82.50
2023-01-09T03:39:54.603Z,82.87
2023-01-09T03:42:20.938Z,83.17
2023-01-09T03:44:47.491Z,83.85
2023-01-09T03:47:13.947Z,83.04
2023-01-09T03:49:40.543Z,83.27
2023-01-09T03:52:07.078Z,83.10
2023-01-09T03:54:33.424Z,82.79
2023-01-09T03:56:59.849Z,82.68
2023-01-09T03:59:26.411Z,82.30
2023-01-09T04:01:52.935Z,82.10
2023-01-09T04:04:19.389Z,82.67
2023-01-09T04:06:45.755Z,83.41
2023-01-09T04:09:12.281Z,82.19
2023-01-09T04:11:38.655Z,83.18
2023-01-09T04:14:05.068Z,82.81
2023-01-09T04:16:31.489Z,84.04
2023-01-09T04:18:57.971Z,83.95
2023-01-09T04:21:24.346Z,83.83
2023-01-09T04:23:50.809Z,84.92
2023-01-09T04:26:17.280Z,84.38
2023-01-09T04:28:43.628Z,84.59
2023-01-09T04:31:10.102Z,84.95
2023-01-09T04:33:36.752Z,84.42
2023-01-09T04:36:03.515Z,85.44
2023-01-09T04:38:29.970Z,86.50
2023-01-09T04:40:56.340Z,85.84
2023-01-09T04:43:22.836Z,85.76
2023-01-09T04:45:49.220Z,85.81
2023-01-09T04:48:15.977Z,86.04
2023-01-09T04:50:42.343Z,86.26
2023-01-09T04:53:08.932Z,87.70
2023-01-09T04:55:35.409Z,87.67
2023-01-09T04:58:01.774Z,87.09
2023-01-09T05:00:28.276Z,89.05
2023-01-09T05:02:54.964Z,89.42
2023-01-09T05:05:21.389Z,88.93
2023-01-09T05:07:47.751Z,88.42
2023-01-09T05:10:14.237Z,89.55
2023-01-09T05:12:40.736Z,91.03
2023-01-09T05:15:08.322Z,90.73
2023-01-09T05:17:34.976Z,91.93
2023-01-09T05:20:01.512Z,92.69
2023-01-09T05:22:28.107Z,93.11
2023-01-09T05:24:54.670Z,93.28
2023-01-09T05:27:23.417Z,93.92
2023-01-09T05:29:49.758Z,94.13
2023-01-09T05:32:16.152Z,95.61
2023-01-09T05:34:42.546Z,96.11
2023-01-09T05:37:08.908Z,97.53
2023-01-09T05:39:35.415Z,97.56
2023-01-09T05:42:01.927Z,97.68
2023-01-09T05:44:28.355Z,97.53
2023-01-09T05:46:54.792Z,98.06
2023-01-09T05:49:21.138Z,98.15
2023-01-09T05:51:47.719Z,98.76
2023-01-09T05:54:14.059Z,99.37
2023-01-09T05:56:40.574Z,99.28
2023-01-09T05:59:07.029Z,98.74
2023-01-09T06:01:33.459Z,99.98
2023-01-09T06:04:03.116Z,99.51
2023-01-09T06:06:29.670Z,98.31
2023-01-09T06:08:56.110Z,100.00
2023-01-09T06:11:22.628Z,100.00
2023-01-09T06:13:48.986Z,100.00
2023-01-09T06:16:15.862Z,100.00
2023-01-09T06:18:42.224Z,99.31
2023-01-09T06:21:08.594Z,100.00
2023-01-09T06:23:35.135Z,100.00
2023-01-09T06:26:01.610Z,100.00
2023-01-09T06:28:28.100Z,100.00
2023-01-09T06:30:54.520Z,100.00
2023-01-09T06:33:20.960Z,100.00
2023-01-09T06:35:47.464Z,100.00
2023-01-09T06:38:13.918Z,100.00
2023-01-09T06:40:40.358Z,100.00
2023-01-09T06:43:06.783Z,100.00
2023-01-09T06:45:33.537Z,100.00
2023-01-09T06:47:59.923Z,100.00
2023-01-09T06:50:26.275Z,100.00
2023-01-09T06:52:52.928Z,100.00
2023-01-09T06:55:19.398Z,100.00
2023-01-09T06:57:45.769Z,100.00
2023-01-09T07:00:12.647Z,100.00
2023-01-09T07:02:39.078Z,100.00
2023-01-09T07:05:07.885Z,100.00
2023-01-09T07:07:34.583Z,100.00
2023-01-09T07:10:00.968Z,100.00
2023-01-09T07:12:28.294Z,100.00
2023-01-09T07:14:57.428Z,100.00
2023-01-09T07:17:24.075Z,100.00
2023-01-09T07:19:50.454Z,99.25
2023-01-09T07:22:17.512Z,100.00
2023-01-09T07:24:44.495Z,98.93
2023-01-09T07:27:11.712Z,99.06
2023-01-09T07:29:38.138Z,99.11
2023-01-09T07:32:05.111Z,98.52
2023-01-09T07:34:31.527Z,98.61
2023-01-09T07:36:57.974Z,99.12
2023-01-09T07:39:24.352Z,99.09
2023-01-09T07:41:50.855Z,99.50
2023-01-09T07:44:17.224Z,98.70
2023-01-09T07:46:43.696Z,99.83
2023-01-09T07:49:10.264Z,100.00
2023-01-09T07:51:39.132Z,100.00
2023-01-09T07:54:05.629Z,100.00
2023-01-09T07:56:31.969Z,100.00
2023-01-09T07:58:58.429Z,100.00
2023-01-09T08:01:25.036Z,99.43
2023-01-09T08:03:51.430Z,100.00
2023-01-09T08:06:17.805Z,99.60
2023-01-09T08:08:44.373Z,100.00
2023-01-09T08:11:10.938Z,100.00
2023-01-09T08:13:37.313Z,100.00
2023-01-09T08:16:03.994Z,100.00
2023-01-09T08:18:30.520Z,100.00
2023-01-09T08:20:56.899Z,100.00
2023-01-09T08:23:23.333Z,100.00
2023-01-09T08:25:49.895Z,100.00
2023-01-09T08:28:17.090Z,100.00
2023-01-09T08:30:43.597Z,100.00
2023-01-09T08:33:10.081Z,98.07
2023-01-09T08:35:37.097Z,99.10
2023-01-09T08:38:03.944Z,98.69
2023-01-09T08:40:30.499Z,98.93
2023-01-09T08:43:15.538Z,99.09
2023-01-09T08:46:00.311Z,98.75
2023-01-09T08:48:27.025Z,99.24
2023-01-09T08:50:54.229Z,98.60
2023-01-09T08:53:20.810Z,97.54
2023-01-09T08:55:47.247Z,96.49
2023-01-09T08:58:13.729Z,97.14
2023-01-09T09:00:40.239Z,95.75
2023-01-09T09:03:06.636Z,95.67
2023-01-09T09:05:33.088Z,97.60
2023-01-09T09:07:59.946Z,96.84
2023-01-09T09:10:29.458Z,97.95
2023-01-09T09:12:57.793Z,98.32
2023-01-09T09:15:26.252Z,97.81
2023-01-09T09:17:58.503Z,97.83
2023-01-09T09:20:28.045Z,96.33
2023-01-09T09:22:54.992Z,96.79
2023-01-09T09:25:21.876Z,97.73
2023-01-09T09:27:49.025Z,96.97
2023-01-09T09:30:17.615Z,96.33
2023-01-09T09:32:44.451Z,96.18
2023-01-09T09:35:11.884Z,95.00
2023-01-09T09:37:38.963Z,94.42
2023-01-09T09:40:17.985Z,93.81
2023-01-09T09:43:30.433Z,91.91
2023-01-09T09:46:08.464Z,91.93
2023-01-09T09:48:45.054Z,93.58
2023-01-09T09:51:25.762Z,93.21
2023-01-09T09:54:03.962Z,93.00
2023-01-09T09:56:35.280Z,92.75
2023-01-09T09:59:07.255Z,92.38
2023-01-09T10:01:40.170Z,93.39
2023-01-09T10:04:12.238Z,92.59
2023-01-09T10:06:48.382Z,92.56
2023-01-09T10:09:20.560Z,92.80
2023-01-09T10:11:55.889Z,91.61
2023-01-09T10:14:24.687Z,90.96
2023-01-09T10:17:19.009Z,90.43
2023-01-09T10:20:26.054Z,91.24
2023-01-09T10:23:27.510Z,89.37
2023-01-09T10:26:01.096Z,87.81
2023-01-09T10:29:05.081Z,90.32
2023-01-09T10:31:50.374Z,91.68
2023-01-09T10:34:39.116Z,90.34
2023-01-09T10:37:14.114Z,91.07
2023-01-09T10:39:57.741Z,91.55
2023-01-09T10:42:33.422Z,92.04
2023-01-09T10:45:07.929Z,92.25
2023-01-09T10:47:37.193Z,92.79
2023-01-09T10:50:28.084Z,92.98
2023-01-09T10:52:56.174Z,92.88
2023-01-09T10:55:44.586Z,92.89
2023-01-09T10:58:18.826Z,91.47
2023-01-09T11:00:47.539Z,91.85
2023-01-09T11:03:16.475Z,93.11
2023-01-09T11:05:44.413Z,92.39
2023-01-09T11:08:14.107Z,91.33
2023-01-09T11:10:55.606Z,91.04
2023-01-09T11:13:26.809Z,87.82
2023-01-09T11:16:05.737Z,84.69
2023-01-09T11:19:02.921Z,86.95
2023-01-09T11:21:41.723Z,87.69
2023-01-09T11:24:23.937Z,85.52
2023-01-09T11:27:12.689Z,83.81
2023-01-09T11:29:40.201Z,82.89
2023-01-09T11:32:20.480Z,83.30
2023-01-09T11:34:47.152Z,82.38
2023-01-09T11:37:23.439Z,81.37
2023-01-09T11:39:51.218Z,80.93
2023-01-09T11:42:44.432Z,77.07
2023-01-09T11:45:25.011Z,75.55
2023-01-09T11:47:51.442Z,71.41
2023-01-09T11:50:22.654Z,73.84
2023-01-09T11:53:16.488Z,75.85
2023-01-09T11:55:44.473Z,75.96
2023-01-09T11:58:16.615Z,70.74
2023-01-09T12:00:58.208Z,67.70
2023-01-09T12:03:50.190Z,66.85
2023-01-09T12:06:26.256Z,68.58
2023-01-09T12:09:03.073Z,70.31
2023-01-09T12:11:53.460Z,70.21
2023-01-09T12:14:32.932Z,72.35
2023-01-09T12:17:20.097Z,72.49
2023-01-09T12:20:04.575Z,73.73
2023-01-09T12:22:49.278Z,75.73
2023-01-09T12:25:29.508Z,76.48
2023-01-09T12:28:14.554Z,78.84
2023-01-09T12:31:10.537Z,79.04
2023-01-09T12:33:57.385Z,79.38
2023-01-09T12:37:05.409Z,79.40
2023-01-09T12:39:31.870Z,80.97
2023-01-09T12:42:11.626Z,80.52
2023-01-09T12:44:53.079Z,81.34
2023-01-09T12:47:55.429Z,81.13
2023-01-09T12:50:57.401Z,82.00
2023-01-09T12:53:27.243Z,82.13
2023-01-09T12:56:14.874Z,82.03
2023-01-09T12:58:44.699Z,83.53
2023-01-09T13:01:18.248Z,84.41
2023-01-09T13:04:13.987Z,84.29
2023-01-09T13:06:45.632Z,85.65
2023-01-09T13:09:47.487Z,86.09
2023-01-09T13:12:18.169Z,87.45
2023-01-09T13:14:51.410Z,87.74
2023-01-09T13:17:23.742Z,88.45
2023-01-09T13:19:50.286Z,88.40
2023-01-09T13:22:18.072Z,86.90
2023-01-09T13:25:06.283Z,86.74
2023-01-09T13:27:39.270Z,86.45
2023-01-09T13:30:29.240Z,86.58
2023-01-09T13:33:13.952Z,85.73
2023-01-09T13:35:55.844Z,85.54
2023-01-09T13:38:24.910Z,86.17
2023-01-09T13:41:30.066Z,84.79
2023-01-09T13:44:19.218Z,83.85
2023-01-09T13:46:48.561Z,84.48
2023-01-09T13:49:40.974Z,83.98
2023-01-09T13:52:36.780Z,85.98
2023-01-09T13:55:24.277Z,86.07
2023-01-09T13:58:06.007Z,86.26
2023-01-09T14:00:35.834Z,85.59
2023-01-09T14:03:08.208Z,85.49
2023-01-09T14:05:34.614Z,85.30
2023-01-09T14:08:03.799Z,86.73
2023-01-09T14:10:51.964Z,86.81
2023-01-09T14:13:24.306Z,87.51
2023-01-09T14:15:52.394Z,87.68
2023-01-09T14:18:23.514Z,87.85
2023-01-09T14:20:57.771Z,87.52
2023-01-09T14:23:49.829Z,88.77
2023-01-09T14:26:23.560Z,89.07
2023-01-09T14:28:50.585Z,90.21
2023-01-09T14:31:31.976Z,90.06
2023-01-09T14:34:37.172Z,90.85
2023-01-09T14:37:04.517Z,91.39
2023-01-09T14:39:32.636Z,91.15
2023-01-09T14:42:07.777Z,90.99
2023-01-09T14:44:48.487Z,92.07
2023-01-09T14:47:21.510Z,92.21
2023-01-09T14:49:59.569Z,92.65
2023-01-09T14:52:35.184Z,93.21
2023-01-09T14:55:04.239Z,93.39
2023-01-09T14:57:34.065Z,94.65
2023-01-09T15:00:13.462Z,95.01
2023-01-09T15:02:41.321Z,95.79
2023-01-09T15:05:11.296Z,96.57
2023-01-09T15:07:44.504Z,97.28
2023-01-09T15:10:21.285Z,97.68
2023-01-09T15:12:50.275Z,97.68
2023-01-09T15:15:18.343Z,97.60
2023-01-09T15:18:06.597Z,98.83
2023-01-09T15:20:34.269Z,99.26
2023-01-09T15:23:04.076Z,97.68
2023-01-09T15:25:40.630Z,97.70
2023-01-09T15:28:25.086Z,98.97
2023-01-09T15:31:01.538Z,98.31
2023-01-09T15:33:28.356Z,98.70
2023-01-09T15:36:00.255Z,98.47
2023-01-09T15:38:28.419Z,98.30
2023-01-09T15:41:06.655Z,98.16
2023-01-09T15:43:34.823Z,98.57
2023-01-09T15:46:01.526Z,97.96
2023-01-09T15:48:33.942Z,98.53
2023-01-09T15:51:18.267Z,98.53
2023-01-09T15:53:47.032Z,97.96
2023-01-09T15:56:26.230Z,98.68
2023-01-09T15:58:54.537Z,98.89
2023-01-09T16:01:27.628Z,98.51
2023-01-09T16:04:04.949Z,98.08
2023-01-09T16:06:34.885Z,98.23
2023-01-09T16:09:01.949Z,98.00
2023-01-09T16:11:30.954Z,98.03
2023-01-09T16:14:09.956Z,97.89
2023-01-09T16:16:38.479Z,96.53
2023-01-09T16:19:05.000Z,95.88
2023-01-09T16:21:41.576Z,96.67
2023-01-09T16:24:13.898Z,96.63
2023-01-09T16:26:40.490Z,96.15
2023-01-09T16:29:27.317Z,96.29
2023-01-09T16:32:05.453Z,95.66
2023-01-09T16:34:36.809Z,93.96
2023-01-09T16:37:05.633Z,93.81
2023-01-09T16:39:32.238Z,94.88
2023-01-09T16:42:17.134Z,94.75
2023-01-09T16:44:43.575Z,94.43
2023-01-09T16:47:11.995Z,94.44
2023-01-09T16:49:38.650Z,94.32
2023-01-09T16:52:15.201Z,94.67
2023-01-09T16:54:43.620Z,94.92
2023-01-09T16:57:15.648Z,93.93
2023-01-09T16:59:42.200Z,93.35
2023-01-09T17:02:18.404Z,94.71
2023-01-09T17:04:44.928Z,93.92
2023-01-09T17:07:15.684Z,93.25
2023-01-09T17:09:43.145Z,94.14
2023-01-09T17:12:17.673Z,93.91
2023-01-09T17:14:44.165Z,94.05
2023-01-09T17:17:12.329Z,94.86
2023-01-09T17:19:38.772Z,94.46
2023-01-09T17:22:05.398Z,95.08
2023-01-09T17:24:50.871Z,94.79
2023-01-09T17:27:41.071Z,94.88
2023-01-09T17:30:18.396Z,95.21
2023-01-09T17:32:45.676Z,93.99
2023-01-09T17:35:13.328Z,93.92
2023-01-09T17:37:39.825Z,93.75
2023-01-09T17:40:19.167Z,93.71
2023-01-09T17:42:45.664Z,92.99
2023-01-09T17:45:12.163Z,93.16
2023-01-09T17:47:38.808Z,92.37
2023-01-09T17:50:05.911Z,93.97
2023-01-09T17:52:33.076Z,93.82
2023-01-09T17:55:05.138Z,94.52
2023-01-09T17:57:32.722Z,94.19
2023-01-09T17:59:59.155Z,94.94
2023-01-09T18:02:25.613Z,94.66
2023-01-09T18:04:52.070Z,94.59
2023-01-09T18:07:18.527Z,93.23
2023-01-09T18:09:45.146Z,92.68
2023-01-09T18:12:11.615Z,93.39
2023-01-09T18:14:38.869Z,93.58
2023-01-09T18:17:08.441Z,94.33
2023-01-09T18:19:34.902Z,93.92
2023-01-09T18:22:01.304Z,94.26
2023-01-09T18:24:27.694Z,94.35
2023-01-09T18:26:54.369Z,94.39
2023-01-09T18:29:21.369Z,93.21
2023-01-09T18:31:48.087Z,92.51
2023-01-09T18:34:14.632Z,92.04
2023-01-09T18:36:41.263Z,92.84
2023-01-09T18:39:08.698Z,92.49
2023-01-09T18:41:35.085Z,93.52
2023-01-09T18:44:02.210Z,93.02
2023-01-09T18:46:32.193Z,92.78
2023-01-09T18:49:01.429Z,94.01
2023-01-09T18:51:28.660Z,93.90
2023-01-09T18:53:56.090Z,93.76
2023-01-09T18:56:24.678Z,93.88
2023-01-09T18:58:55.992Z,93.79
2023-01-09T19:01:22.669Z,93.96
2023-01-09T19:03:49.578Z,94.52
2023-01-09T19:06:16.002Z,95.01
2023-01-09T19:08:42.409Z,94.77
2023-01-09T19:11:08.769Z,95.48
2023-01-09T19:13:36.823Z,95.35
2023-01-09T19:16:04.727Z,95.36
2023-01-09T19:18:36.553Z,94.72
2023-01-09T19:21:10.761Z,94.16
2023-01-09T19:23:37.308Z,93.81
2023-01-09T19:26:06.081Z,94.08
2023-01-09T19:28:32.520Z,93.40
2023-01-09T19:30:58.968Z,92.00
2023-01-09T19:33:25.504Z,92.46
2023-01-09T19:35:52.926Z,93.17
2023-01-09T19:38:23.324Z,93.94
2023-01-09T19:40:50.226Z,93.87
2023-01-09T19:43:25.602Z,92.86
2023-01-09T19:45:53.884Z,93.30
2023-01-09T19:48:21.615Z,94.08
2023-01-09T19:50:48.367Z,94.49
2023-01-09T19:53:15.188Z,94.24
2023-01-09T19:55:41.670Z,94.43
2023-01-09T19:58:08.182Z,93.90
2023-01-09T20:00:35.213Z,94.27
2023-01-09T20:03:02.137Z,94.04
2023-01-09T20:05:28.510Z,94.84
2023-01-09T20:07:55.339Z,95.72
2023-01-09T20:10:21.707Z,95.10
2023-01-09T20:12:48.214Z,94.96
2023-01-09T20:15:14.886Z,94.57
2023-01-09T20:17:42.107Z,94.26
2023-01-09T20:20:09.569Z,93.32
2023-01-09T20:22:35.982Z,94.25
2023-01-09T20:25:02.762Z,94.12
2023-01-09T20:27:29.180Z,94.17
2023-01-09T20:29:55.565Z,93.14
2023-01-09T20:32:22.073Z,94.66
2023-01-09T20:34:48.732Z,94.67
2023-01-09T20:37:15.124Z,94.63
2023-01-09T20:39:41.490Z,94.44
2023-01-09T20:42:08.496Z,95.01
2023-01-09T20:44:34.942Z,95.09
2023-01-09T20:47:01.325Z,95.56
2023-01-09T20:49:28.588Z,95.96
2023-01-09T20:51:55.042Z,95.59
2023-01-09T20:54:21.792Z,95.95
2023-01-09T20:56:48.187Z,95.80
2023-01-09T20:59:17.304Z,94.80
2023-01-09T21:01:43.883Z,95.41
2023-01-09T21:04:10.313Z,95.45
2023-01-09T21:06:37.516Z,96.44
2023-01-09T21:09:04.875Z,96.39
2023-01-09T21:11:33.497Z,96.15
2023-01-09T21:14:00.098Z,96.45
2023-01-09T21:16:27.162Z,96.55
2023-01-09T21:18:54.746Z,96.91
2023-01-09T21:21:27.259Z,98.04
2023-01-09T21:23:56.542Z,98.85
2023-01-09T21:26:27.274Z,98.63
2023-01-09T21:28:55.845Z,99.49
2023-01-09T21:31:25.552Z,99.49
2023-01-09T21:33:54.354Z,99.36
2023-01-09T21:36:21.567Z,100.00
2023-01-09T21:38:48.436Z,100.00
2023-01-09T21:41:36.628Z,99.90
2023-01-09T21:44:21.473Z,99.77
2023-01-09T21:46:57.489Z,99.08
2023-01-09T21:49:26.477Z,98.29
2023-01-09T21:51:54.014Z,98.56
2023-01-09T21:54:24.209Z,99.62
2023-01-09T21:56:51.495Z,100.00
2023-01-09T21:59:18.153Z,99.18
2023-01-09T22:01:45.250Z,100.00
2023-01-09T22:04:14.357Z,100.00
2023-01-09T22:06:40.743Z,100.00
2023-01-09T22:09:09.794Z,100.00
2023-01-09T22:11:37.570Z,99.53
2023-01-09T22:14:04.213Z,99.20
2023-01-09T22:16:30.796Z,99.44
2023-01-09T22:18:57.773Z,99.46
2023-01-09T22:21:25.579Z,99.28
2023-01-09T22:23:52.213Z,99.10
2023-01-09T22:26:18.952Z,99.34
2023-01-09T22:28:46.367Z,100.00
2023-01-09T22:31:20.416Z,99.37
2023-01-09T22:33:51.757Z,99.37
2023-01-09T22:36:18.925Z,97.95
2023-01-09T22:38:45.672Z,99.43
2023-01-09T22:41:12.530Z,99.39
2023-01-09T22:43:38.968Z,100.00
2023-01-09T22:46:09.721Z,98.54
2023-01-09T22:48:37.711Z,96.87
2023-01-09T22:51:16.296Z,98.68
2023-01-09T22:53:43.312Z,99.23
2023-01-09T22:56:12.547Z,99.32
2023-01-09T22:58:39.407Z,99.01
2023-01-09T23:01:06.220Z,99.31
2023-01-09T23:03:32.943Z,98.36
2023-01-09T23:06:04.752Z,98.92
2023-01-09T23:08:32.067Z,98.54
2023-01-09T23:10:58.896Z,98.89
2023-01-09T23:13:25.449Z,97.92
2023-01-09T23:15:52.076Z,98.84
2023-01-09T23:18:18.792Z,98.54
2023-01-09T23:20:57.189Z,98.06
2023-01-09T23:23:24.836Z,99.03
2023-01-09T23:25:53.343Z,98.01
2023-01-09T23:28:20.314Z,98.56
2023-01-09T23:30:47.364Z,98.71
2023-01-09T23:33:16.508Z,98.55
2023-01-09T23:35:44.019Z,97.62
2023-01-09T23:38:13.992Z,98.24
2023-01-09T23:40:41.587Z,97.88
2023-01-09T23:43:11.198Z,98.12
2023-01-09T23:45:43.158Z,99.37
2023-01-09T23:48:12.658Z,98.70
2023-01-09T23:50:42.149Z,99.81
2023-01-09T23:53:09.474Z,99.49
2023-01-09T23:55:36.731Z,99.79
2023-01-09T23:58:03.131Z,99.83
